createdAt,value
2022-10-18T00:01:39.868Z,3.55
2022-10-18T00:04:07.711Z,3.90
2022-10-18T00:06:37.669Z,3.78
2022-10-18T00:09:07.625Z,3.83
2022-10-18T00:11:36.799Z,4.10
2022-10-18T00:14:04.966Z,3.13
2022-10-18T00:16:32.769Z,3.78
2022-10-18T00:19:00.568Z,4.28
2022-10-18T00:21:28.372Z,3.80
2022-10-18T00:23:56.206Z,3.65
2022-10-18T00:26:26.119Z,4.07
2022-10-18T00:28:58.068Z,3.72
2022-10-18T00:31:27.701Z,3.80
2022-10-18T00:33:57.476Z,3.70
2022-10-18T00:36:25.706Z,4.18
2022-10-18T00:38:53.831Z,3.63
2022-10-18T00:41:23.024Z,3.40
2022-10-18T00:43:59.832Z,3.83
2022-10-18T00:46:29.031Z,3.83
2022-10-18T00:48:58.098Z,3.97
2022-10-18T00:51:29.457Z,3.55
2022-10-18T00:53:57.276Z,3.70
2022-10-18T00:56:25.125Z,3.50
2022-10-18T00:58:52.972Z,3.65
2022-10-18T01:01:25.838Z,3.90
2022-10-18T01:03:57.132Z,3.95
2022-10-18T01:06:25.061Z,3.47
2022-10-18T01:09:05.062Z,3.65
2022-10-18T01:11:47.826Z,3.60
2022-10-18T01:14:23.637Z,3.60
2022-10-18T01:16:55.973Z,4.13
2022-10-18T01:19:54.066Z,3.58
2022-10-18T01:22:25.046Z,3.83
2022-10-18T01:25:03.842Z,3.72
2022-10-18T01:27:39.378Z,3.50
2022-10-18T01:30:35.008Z,3.58
2022-10-18T01:33:06.683Z,3.38
2022-10-18T01:35:38.974Z,3.83
2022-10-18T01:38:11.384Z,3.63
2022-10-18T01:40:39.702Z,3.55
2022-10-18T01:43:08.031Z,3.60
2022-10-18T01:45:37.213Z,4.25
2022-10-18T01:48:05.444Z,4.03
2022-10-18T01:50:34.933Z,3.28
2022-10-18T01:53:03.194Z,3.70
2022-10-18T01:55:34.533Z,3.90
2022-10-18T01:58:07.131Z,3.83
2022-10-18T02:00:41.204Z,3.90
2022-10-18T02:03:15.305Z,4.75
2022-10-18T02:05:47.936Z,4.15
2022-10-18T02:08:27.314Z,4.68
2022-10-18T02:10:58.099Z,4.18
2022-10-18T02:13:27.756Z,4.70
2022-10-18T02:16:00.597Z,4.55
2022-10-18T02:18:34.186Z,5.13
2022-10-18T02:21:03.019Z,5.07
2022-10-18T02:23:31.461Z,4.75
2022-10-18T02:25:59.232Z,4.45
2022-10-18T02:28:28.021Z,4.90
2022-10-18T02:31:01.224Z,4.35
2022-10-18T02:33:34.228Z,4.22
2022-10-18T02:36:06.033Z,4.43
2022-10-18T02:38:34.264Z,4.07
2022-10-18T02:41:02.046Z,4.63
2022-10-18T02:43:29.835Z,4.18
2022-10-18T02:45:59.030Z,5.03
2022-10-18T02:48:26.805Z,4.53
2022-10-18T02:50:54.564Z,4.93
2022-10-18T02:53:22.391Z,4.32
2022-10-18T02:55:50.122Z,4.72
2022-10-18T02:58:17.879Z,4.80
2022-10-18T03:00:45.638Z,5.07
2022-10-18T03:03:14.832Z,4.97
2022-10-18T03:05:42.557Z,5.47
2022-10-18T03:08:10.296Z,4.80
2022-10-18T03:10:38.040Z,5.03
2022-10-18T03:13:05.732Z,4.57
2022-10-18T03:15:33.435Z,5.05
2022-10-18T03:18:01.190Z,4.82
2022-10-18T03:20:30.245Z,4.50
2022-10-18T03:22:57.988Z,5.10
2022-10-18T03:25:25.814Z,4.82
2022-10-18T03:27:53.575Z,5.35
2022-10-18T03:30:21.437Z,5.22
2022-10-18T03:32:49.160Z,4.72
2022-10-18T03:35:17.334Z,5.50
2022-10-18T03:37:46.551Z,5.38
2022-10-18T03:40:14.288Z,4.90
2022-10-18T03:42:42.042Z,5.70
2022-10-18T03:45:10.682Z,5.47
2022-10-18T03:47:38.577Z,6.00
2022-10-18T03:50:06.953Z,6.18
2022-10-18T03:52:34.878Z,5.85
2022-10-18T03:55:04.446Z,6.72
2022-10-18T03:57:32.178Z,5.95
2022-10-18T03:59:59.921Z,5.75
2022-10-18T04:02:27.750Z,6.07
2022-10-18T04:04:55.509Z,6.88
2022-10-18T04:07:23.203Z,5.90
2022-10-18T04:09:50.930Z,6.38
2022-10-18T04:12:20.065Z,6.03
2022-10-18T04:14:47.823Z,5.65
2022-10-18T04:17:16.090Z,5.32
2022-10-18T04:19:43.858Z,5.20
2022-10-18T04:22:12.586Z,4.95
2022-10-18T04:24:40.383Z,6.18
2022-10-18T04:27:08.839Z,5.57
2022-10-18T04:29:37.978Z,6.22
2022-10-18T04:32:06.082Z,6.82
2022-10-18T04:34:33.952Z,6.00
2022-10-18T04:37:01.768Z,6.07
2022-10-18T04:39:29.713Z,7.10
2022-10-18T04:41:57.561Z,6.40
2022-10-18T04:44:25.409Z,6.75
2022-10-18T04:46:54.495Z,6.85
2022-10-18T04:49:22.205Z,6.95
2022-10-18T04:51:49.913Z,7.40
2022-10-18T04:54:17.724Z,7.70
2022-10-18T04:56:45.429Z,7.13
2022-10-18T04:59:13.290Z,7.20
2022-10-18T05:01:41.037Z,7.90
2022-10-18T05:04:10.489Z,7.65
2022-10-18T05:06:38.236Z,7.85
2022-10-18T05:09:06.090Z,8.25
2022-10-18T05:11:33.992Z,7.85
2022-10-18T05:14:01.683Z,8.02
2022-10-18T05:16:29.532Z,7.60
2022-10-18T05:18:57.265Z,8.27
2022-10-18T05:21:26.491Z,8.13
2022-10-18T05:23:56.393Z,7.93
2022-10-18T05:26:24.290Z,8.25
2022-10-18T05:28:52.027Z,8.10
2022-10-18T05:31:19.831Z,8.35
2022-10-18T05:33:47.595Z,7.88
2022-10-18T05:36:15.467Z,8.82
2022-10-18T05:38:45.520Z,9.05
2022-10-18T05:41:13.820Z,8.05
2022-10-18T05:43:41.955Z,8.40
2022-10-18T05:46:15.087Z,9.05
2022-10-18T05:48:44.416Z,10.27
2022-10-18T05:51:12.713Z,8.98
2022-10-18T05:53:40.456Z,9.48
2022-10-18T05:56:11.698Z,8.68
2022-10-18T05:58:40.127Z,8.60
2022-10-18T06:01:08.440Z,9.02
2022-10-18T06:03:36.273Z,8.20
2022-10-18T06:06:05.733Z,9.05
2022-10-18T06:08:33.823Z,8.68
2022-10-18T06:11:01.702Z,9.05
2022-10-18T06:13:32.415Z,9.75
2022-10-18T06:16:01.529Z,9.75
2022-10-18T06:18:29.815Z,9.20
2022-10-18T06:20:58.799Z,8.75
2022-10-18T06:23:26.620Z,9.02
2022-10-18T06:25:54.398Z,8.98
2022-10-18T06:28:22.148Z,9.02
2022-10-18T06:30:51.238Z,9.05
2022-10-18T06:33:18.904Z,9.50
2022-10-18T06:35:55.451Z,10.65
2022-10-18T06:38:23.187Z,10.80
2022-10-18T06:40:50.945Z,10.18
2022-10-18T06:43:21.346Z,10.25
2022-10-18T06:45:51.104Z,10.93
2022-10-18T06:50:53.602Z,10.50
2022-10-18T06:53:21.297Z,10.27
2022-10-18T06:55:49.005Z,11.10
2022-10-18T06:58:17.057Z,10.90
2022-10-18T07:00:45.248Z,10.50
2022-10-18T07:03:14.381Z,10.45
2022-10-18T07:05:42.102Z,10.90
2022-10-18T07:08:09.830Z,11.65
2022-10-18T07:10:37.474Z,13.45
2022-10-18T07:13:27.309Z,13.35
2022-10-18T07:16:02.356Z,14.30
2022-10-18T07:18:31.533Z,14.68
2022-10-18T07:21:02.365Z,14.90
2022-10-18T07:23:30.221Z,15.98
2022-10-18T07:25:58.207Z,14.80
2022-10-18T07:28:26.086Z,15.25
2022-10-18T07:30:54.024Z,15.77
2022-10-18T07:33:21.872Z,15.05
2022-10-18T07:35:51.176Z,15.10
2022-10-18T07:38:19.099Z,15.02
2022-10-18T07:40:46.938Z,16.08
2022-10-18T07:43:14.830Z,15.32
2022-10-18T07:45:42.693Z,15.15
2022-10-18T07:48:10.558Z,15.23
2022-10-18T07:50:38.440Z,15.35
2022-10-18T07:53:07.605Z,16.25
2022-10-18T07:55:35.446Z,15.02
2022-10-18T07:58:03.329Z,16.23
2022-10-18T08:00:31.233Z,16.00
2022-10-18T08:03:00.328Z,16.40
2022-10-18T08:05:29.250Z,16.77
2022-10-18T08:07:57.451Z,17.42
2022-10-18T08:10:26.767Z,16.52
2022-10-18T08:12:55.498Z,16.02
2022-10-18T08:15:25.557Z,16.73
2022-10-18T08:17:53.536Z,15.73
2022-10-18T08:20:30.404Z,16.50
2022-10-18T08:23:00.525Z,17.88
2022-10-18T08:25:30.370Z,18.10
2022-10-18T08:27:58.316Z,17.60
2022-10-18T08:30:26.214Z,18.15
2022-10-18T08:32:54.467Z,18.13
2022-10-18T08:35:22.329Z,18.23
2022-10-18T08:37:50.203Z,17.98
2022-10-18T08:40:18.364Z,18.08
2022-10-18T08:43:03.948Z,19.50
2022-10-18T08:45:43.304Z,22.15
2022-10-18T08:48:19.436Z,26.58
2022-10-18T08:50:47.807Z,27.50
2022-10-18T08:53:19.924Z,30.23
2022-10-18T08:55:52.485Z,29.58
2022-10-18T08:58:23.502Z,30.85
2022-10-18T09:01:01.200Z,34.45
2022-10-18T09:03:41.457Z,35.70
2022-10-18T09:06:21.165Z,35.67
2022-10-18T09:09:00.910Z,38.00
2022-10-18T09:11:40.837Z,37.78
2022-10-18T09:14:44.272Z,35.80
2022-10-18T09:17:19.128Z,35.10
2022-10-18T09:20:10.552Z,34.97
2022-10-18T09:22:44.800Z,38.53
2022-10-18T09:25:19.391Z,39.85
2022-10-18T09:27:53.298Z,33.92
2022-10-18T09:30:30.982Z,33.95
2022-10-18T09:33:07.681Z,31.70
2022-10-18T09:35:40.333Z,30.63
2022-10-18T09:38:12.136Z,31.67
2022-10-18T09:40:48.367Z,30.13
2022-10-18T09:43:19.085Z,30.13
2022-10-18T09:45:48.921Z,30.38
2022-10-18T09:48:21.080Z,29.20
2022-10-18T09:50:52.609Z,28.95
2022-10-18T09:53:24.770Z,30.48
2022-10-18T09:56:00.363Z,30.65
2022-10-18T09:58:37.346Z,29.33
2022-10-18T10:01:07.557Z,31.85
2022-10-18T10:03:35.808Z,32.08
2022-10-18T10:06:16.014Z,31.27
2022-10-18T10:08:45.448Z,30.45
2022-10-18T10:11:28.504Z,33.10
2022-10-18T10:13:58.943Z,32.28
2022-10-18T10:16:28.754Z,28.35
2022-10-18T10:18:56.774Z,25.20
2022-10-18T10:21:25.626Z,26.17
2022-10-18T10:23:56.101Z,26.23
2022-10-18T10:26:25.328Z,25.77
2022-10-18T10:28:53.135Z,27.33
2022-10-18T10:31:29.615Z,25.33
2022-10-18T10:34:02.525Z,26.00
2022-10-18T10:36:30.884Z,26.95
2022-10-18T10:39:05.048Z,25.40
2022-10-18T10:44:06.506Z,26.00
2022-10-18T10:46:38.409Z,24.80
2022-10-18T10:49:39.075Z,26.13
2022-10-18T10:52:08.264Z,24.63
2022-10-18T10:54:39.052Z,25.60
2022-10-18T10:57:14.337Z,27.02
2022-10-18T10:59:45.522Z,28.77
2022-10-18T11:02:22.149Z,29.08
2022-10-18T11:04:51.409Z,29.45
2022-10-18T11:07:24.990Z,28.38
2022-10-18T11:09:59.778Z,29.42
2022-10-18T11:12:34.954Z,30.00
2022-10-18T11:15:24.773Z,29.02
2022-10-18T11:18:02.365Z,31.35
2022-10-18T11:20:33.295Z,29.65
2022-10-18T11:23:03.089Z,31.25
2022-10-18T11:25:42.813Z,31.63
2022-10-18T11:28:16.342Z,31.02
2022-10-18T11:30:53.383Z,30.40
2022-10-18T11:33:50.091Z,29.90
2022-10-18T11:36:21.802Z,31.17
2022-10-18T11:38:56.929Z,28.88
2022-10-18T11:41:32.747Z,30.23
2022-10-18T11:44:03.694Z,30.08
2022-10-18T11:46:51.220Z,29.77
2022-10-18T11:49:40.145Z,26.92
2022-10-18T11:52:13.711Z,27.58
2022-10-18T11:54:56.046Z,26.65
2022-10-18T11:57:38.576Z,27.13
2022-10-18T12:00:17.760Z,26.60
2022-10-18T12:03:14.168Z,26.95
2022-10-18T12:05:45.642Z,25.45
2022-10-18T12:08:16.075Z,24.48
2022-10-18T12:11:04.051Z,22.13
2022-10-18T12:13:36.433Z,21.08
2022-10-18T12:16:05.592Z,20.05
2022-10-18T12:18:34.757Z,20.25
2022-10-18T12:21:06.534Z,19.17
2022-10-18T12:23:41.730Z,18.73
2022-10-18T12:26:11.425Z,18.60
2022-10-18T12:28:46.991Z,20.45
2022-10-18T12:31:21.828Z,17.13
2022-10-18T12:33:51.689Z,16.70
2022-10-18T12:36:31.880Z,14.93
2022-10-18T12:39:01.870Z,14.70
2022-10-18T12:41:31.338Z,15.30
2022-10-18T12:44:02.253Z,14.60
2022-10-18T12:46:44.681Z,15.05
2022-10-18T12:49:14.101Z,14.10
2022-10-18T12:51:53.439Z,13.77
2022-10-18T12:54:23.854Z,12.57
2022-10-18T12:56:51.666Z,11.05
2022-10-18T12:59:41.978Z,11.35
2022-10-18T13:02:20.641Z,10.70
2022-10-18T13:04:48.883Z,13.15
2022-10-18T13:07:23.668Z,12.77
2022-10-18T13:10:40.456Z,11.82
2022-10-18T13:13:38.762Z,11.00
2022-10-18T13:16:13.424Z,11.68
2022-10-18T13:18:50.889Z,11.50
2022-10-18T13:21:21.995Z,7.78
2022-10-18T13:24:04.870Z,6.55
2022-10-18T13:26:42.355Z,6.07
2022-10-18T13:29:25.693Z,5.80
2022-10-18T13:31:55.800Z,6.10
2022-10-18T13:34:26.185Z,6.80
2022-10-18T13:37:02.256Z,7.32
2022-10-18T13:39:32.564Z,7.30
2022-10-18T13:42:33.659Z,7.05
2022-10-18T13:45:38.991Z,6.95
2022-10-18T13:48:44.282Z,6.43
2022-10-18T13:51:56.567Z,7.00
2022-10-18T13:54:40.003Z,6.82
2022-10-18T13:57:17.249Z,6.90
2022-10-18T13:59:55.161Z,18.25
2022-10-18T14:02:53.402Z,5.25
2022-10-18T14:05:39.041Z,4.95
2022-10-18T14:08:13.012Z,4.32
2022-10-18T14:11:01.860Z,4.60
2022-10-18T14:13:40.745Z,4.55
2022-10-18T14:16:15.341Z,3.63
2022-10-18T14:18:43.786Z,3.28
2022-10-18T14:21:19.865Z,3.33
2022-10-18T14:23:49.450Z,4.88
2022-10-18T14:26:20.514Z,4.15
2022-10-18T14:29:03.853Z,3.70
2022-10-18T14:31:31.673Z,3.40
2022-10-18T14:34:00.276Z,2.80
2022-10-18T14:36:30.916Z,2.95
2022-10-18T14:39:00.444Z,3.28
2022-10-18T14:41:30.802Z,3.25
2022-10-18T14:44:18.491Z,3.00
2022-10-18T14:46:47.866Z,2.78
2022-10-18T14:49:16.631Z,3.20
2022-10-18T14:51:45.713Z,2.67
2022-10-18T14:54:16.288Z,2.65
2022-10-18T14:56:46.117Z,2.50
2022-10-18T14:59:17.763Z,2.70
2022-10-18T15:01:53.722Z,2.70
2022-10-18T15:04:26.320Z,3.13
2022-10-18T15:06:56.565Z,3.03
2022-10-18T15:09:24.976Z,2.72
2022-10-18T15:11:57.781Z,2.60
2022-10-18T15:14:27.656Z,2.85
2022-10-18T15:16:59.758Z,3.53
2022-10-18T15:19:33.597Z,3.10
2022-10-18T15:22:30.298Z,2.88
2022-10-18T15:25:08.126Z,3.05
2022-10-18T15:27:39.603Z,2.85
2022-10-18T15:30:09.173Z,2.90
2022-10-18T15:32:37.794Z,2.25
2022-10-18T15:35:10.443Z,2.63
2022-10-18T15:37:40.230Z,2.38
2022-10-18T15:40:31.499Z,2.83
2022-10-18T15:43:02.151Z,2.30
2022-10-18T15:45:39.746Z,2.60
2022-10-18T15:48:30.079Z,2.45
2022-10-18T15:51:01.836Z,2.40
2022-10-18T15:53:44.237Z,2.65
2022-10-18T15:56:27.821Z,1.98
2022-10-18T15:58:58.178Z,2.10
2022-10-18T16:01:33.954Z,2.22
2022-10-18T16:04:02.213Z,2.55
2022-10-18T16:06:29.998Z,2.30
2022-10-18T16:08:57.846Z,2.35
2022-10-18T16:11:26.705Z,2.00
2022-10-18T16:13:57.812Z,2.30
2022-10-18T16:16:30.351Z,2.15
2022-10-18T16:18:58.609Z,2.35
2022-10-18T16:21:28.200Z,2.30
2022-10-18T16:23:56.348Z,2.22
2022-10-18T16:26:24.958Z,2.33
2022-10-18T16:28:53.349Z,2.50
2022-10-18T16:31:22.516Z,2.80
2022-10-18T16:33:52.422Z,2.78
2022-10-18T16:36:21.808Z,2.85
2022-10-18T16:38:49.929Z,2.80
2022-10-18T16:41:18.097Z,2.50
2022-10-18T16:43:47.699Z,2.58
2022-10-18T16:46:17.618Z,2.85
2022-10-18T16:48:46.471Z,2.92
2022-10-18T16:51:15.809Z,4.38
2022-10-18T16:53:43.744Z,3.70
2022-10-18T16:56:15.253Z,3.30
2022-10-18T16:58:43.379Z,3.25
2022-10-18T17:01:12.523Z,3.15
2022-10-18T17:03:41.552Z,3.78
2022-10-18T17:06:16.332Z,3.88
2022-10-18T17:08:44.223Z,3.83
2022-10-18T17:11:12.874Z,4.55
2022-10-18T17:13:41.154Z,4.63
2022-10-18T17:16:20.705Z,3.47
2022-10-18T17:18:48.590Z,4.15
2022-10-18T17:21:17.780Z,3.75
2022-10-18T17:23:45.648Z,3.97
2022-10-18T17:26:28.523Z,4.15
2022-10-18T17:28:58.801Z,4.30
2022-10-18T17:31:26.674Z,4.53
2022-10-18T17:33:55.457Z,4.97
2022-10-18T17:36:24.740Z,4.60
2022-10-18T17:38:52.810Z,4.20
2022-10-18T17:41:21.293Z,5.88
2022-10-18T17:43:49.374Z,6.90
2022-10-18T17:46:17.854Z,5.50
2022-10-18T17:48:46.013Z,5.68
2022-10-18T17:51:16.223Z,6.45
2022-10-18T17:53:45.732Z,5.47
2022-10-18T17:56:14.637Z,6.35
2022-10-18T17:58:44.224Z,7.00
2022-10-18T18:01:13.083Z,6.30
2022-10-18T18:03:41.236Z,6.85
2022-10-18T18:06:17.412Z,6.32
2022-10-18T18:08:47.173Z,5.70
2022-10-18T18:11:15.534Z,6.72
2022-10-18T18:13:43.695Z,6.93
2022-10-18T18:16:13.139Z,6.93
2022-10-18T18:18:41.115Z,7.00
2022-10-18T18:21:08.986Z,7.90
2022-10-18T18:23:36.927Z,7.80
2022-10-18T18:26:06.386Z,8.57
2022-10-18T18:28:36.140Z,8.35
2022-10-18T18:31:07.365Z,7.85
2022-10-18T18:33:35.409Z,7.93
2022-10-18T18:36:04.796Z,7.88
2022-10-18T18:38:33.421Z,7.95
2022-10-18T18:41:07.619Z,7.00
2022-10-18T18:43:36.281Z,6.88
2022-10-18T18:46:04.400Z,7.43
2022-10-18T18:48:33.195Z,7.50
2022-10-18T18:51:00.997Z,7.47
2022-10-18T18:53:29.735Z,7.32
2022-10-18T18:56:02.656Z,6.90
2022-10-18T18:58:32.110Z,7.35
2022-10-18T19:01:00.011Z,8.27
2022-10-18T19:03:28.079Z,8.10
2022-10-18T19:06:03.751Z,9.50
2022-10-18T19:08:31.611Z,12.02
2022-10-18T19:10:59.471Z,12.00
2022-10-18T19:13:27.325Z,11.30
2022-10-18T19:18:58.672Z,12.73
2022-10-18T19:21:28.287Z,12.00
2022-10-18T19:23:57.065Z,11.43
2022-10-18T19:26:32.001Z,10.93
2022-10-18T19:29:05.687Z,10.73
2022-10-18T19:31:34.873Z,10.52
2022-10-18T19:34:04.851Z,11.70
2022-10-18T19:36:32.926Z,11.02
2022-10-18T19:39:01.127Z,11.38
2022-10-18T19:41:29.480Z,10.77
2022-10-18T19:43:57.446Z,10.73
2022-10-18T19:46:25.639Z,10.82
2022-10-18T19:48:54.138Z,10.37
2022-10-18T19:51:27.016Z,11.02
2022-10-18T19:53:56.213Z,11.25
2022-10-18T19:56:25.203Z,11.55
2022-10-18T19:58:53.626Z,11.03
2022-10-18T20:01:21.857Z,10.93
2022-10-18T20:03:49.813Z,10.90
2022-10-18T20:06:17.832Z,11.97
2022-10-18T20:08:47.328Z,11.87
2022-10-18T20:11:16.689Z,15.27
2022-10-18T20:13:44.681Z,15.83
2022-10-18T20:16:13.942Z,15.73
2022-10-18T20:18:43.493Z,12.73
2022-10-18T20:21:12.387Z,13.87
2022-10-18T20:23:41.964Z,12.63
2022-10-18T20:26:18.123Z,11.50
2022-10-18T20:28:55.760Z,12.30
2022-10-18T20:31:25.196Z,13.23
2022-10-18T20:33:56.057Z,13.70
2022-10-18T20:36:23.910Z,12.27
2022-10-18T20:38:51.746Z,13.43
2022-10-18T20:41:22.765Z,15.23
2022-10-18T20:43:54.587Z,13.00
2022-10-18T20:46:22.759Z,12.60
2022-10-18T20:48:50.830Z,14.40
2022-10-18T20:51:19.087Z,14.27
2022-10-18T20:53:47.084Z,14.17
2022-10-18T20:56:16.446Z,12.93
2022-10-18T20:58:46.308Z,12.73
2022-10-18T21:01:15.667Z,13.37
2022-10-18T21:03:45.093Z,12.80
2022-10-18T21:06:14.654Z,11.47
2022-10-18T21:08:43.076Z,11.67
2022-10-18T21:11:11.554Z,11.93
2022-10-18T21:13:40.723Z,12.77
2022-10-18T21:16:10.150Z,12.23
2022-10-18T21:18:40.292Z,12.63
2022-10-18T21:21:09.706Z,12.13
2022-10-18T21:23:37.663Z,11.60
2022-10-18T21:26:05.729Z,11.93
2022-10-18T21:28:33.770Z,12.13
2022-10-18T21:31:14.510Z,11.43
2022-10-18T21:33:43.073Z,12.20
2022-10-18T21:36:11.327Z,11.63
2022-10-18T21:38:39.486Z,11.37
2022-10-18T21:41:09.918Z,11.83
2022-10-18T21:43:37.822Z,10.70
2022-10-18T21:46:06.085Z,9.73
2022-10-18T21:48:35.496Z,10.50
2022-10-18T21:51:04.042Z,10.77
2022-10-18T21:53:31.884Z,11.17
2022-10-18T21:56:05.607Z,10.20
2022-10-18T21:58:33.530Z,10.70
2022-10-18T22:01:01.428Z,11.30
2022-10-18T22:03:29.345Z,10.33
2022-10-18T22:06:01.222Z,10.00
2022-10-18T22:08:29.592Z,9.10
2022-10-18T22:10:58.669Z,9.53
2022-10-18T22:13:27.432Z,9.50
2022-10-18T22:15:55.422Z,9.77
2022-10-18T22:18:23.288Z,8.80
2022-10-18T22:20:55.295Z,8.70
2022-10-18T22:23:24.559Z,9.43
2022-10-18T22:25:52.339Z,8.73
2022-10-18T22:28:20.163Z,7.77
2022-10-18T22:30:48.029Z,7.57
2022-10-18T22:33:15.819Z,7.87
2022-10-18T22:35:43.694Z,7.33
2022-10-18T22:38:11.570Z,7.60
2022-10-18T22:40:40.887Z,7.53
2022-10-18T22:43:08.729Z,7.23
2022-10-18T22:45:36.608Z,6.83
2022-10-18T22:48:04.872Z,6.67
2022-10-18T22:50:32.825Z,6.37
2022-10-18T22:53:00.628Z,6.50
2022-10-18T22:55:28.493Z,6.83
2022-10-18T22:57:57.861Z,6.33
2022-10-18T23:00:25.844Z,7.00
2022-10-18T23:02:53.828Z,6.47
2022-10-18T23:05:21.717Z,6.27
2022-10-18T23:07:50.107Z,6.53
2022-10-18T23:10:18.314Z,6.03
2022-10-18T23:12:46.157Z,5.70
2022-10-18T23:15:15.386Z,6.40
2022-10-18T23:17:43.432Z,6.10
2022-10-18T23:20:11.844Z,6.43
2022-10-18T23:22:39.719Z,5.77
2022-10-18T23:25:08.205Z,6.00
2022-10-18T23:27:36.131Z,5.63
2022-10-18T23:30:04.470Z,5.20
2022-10-18T23:32:33.916Z,6.27
2022-10-18T23:35:02.030Z,6.07
2022-10-18T23:37:30.072Z,5.83
2022-10-18T23:39:58.118Z,5.57
2022-10-18T23:42:26.051Z,5.37
2022-10-18T23:44:54.088Z,5.23
2022-10-18T23:47:21.986Z,5.07
2022-10-18T23:49:51.281Z,5.33
2022-10-18T23:52:19.174Z,6.20
2022-10-18T23:54:47.310Z,5.37
2022-10-18T23:57:15.192Z,4.90
2022-10-18T23:59:43.083Z,5.40
